Time;durP1;ratioP1;P1;durP2;ratioP2;P2;SDS_P1;SDS_P2;PMS_P1;PMS_P2;Temp;Humidity;BMP_temperature;BMP_pressure;BME280_temperature;BME280_humidity;BME280_pressure;Samples;Min_cycle;Max_cycle;Signal;HPM_P1;HPM_P2
2022/04/26 03:36:51;;;;;;;26.77;21.33;;;10.70;99.90;;;;;;4997147;28;20937;-52
2022/04/26 03:39:18;;;;;;;27.27;21.30;;;10.70;99.90;;;;;;4997190;28;20464;-52
2022/04/26 03:41:45;;;;;;;26.30;22.50;;;10.70;99.90;;;;;;4997367;28;20535;-51
2022/04/26 03:44:12;;;;;;;26.30;21.87;;;10.70;99.90;;;;;;4997230;28;20480;-51
2022/04/26 03:46:39;;;;;;;24.30;20.00;;;10.70;99.90;;;;;;4997046;28;20525;-51
2022/04/26 03:49:08;;;;;;;25.43;20.20;;;10.70;99.90;;;;;;4996812;28;20468;-51
2022/04/26 03:51:35;;;;;;;23.67;19.00;;;10.70;99.90;;;;;;4996746;28;20482;-51
2022/04/26 03:54:02;;;;;;;18.70;16.70;;;10.70;99.90;;;;;;4996735;28;20961;-51
2022/04/26 03:56:29;;;;;;;21.30;18.20;;;10.70;99.90;;;;;;4996867;28;20927;-51
2022/04/26 03:58:56;;;;;;;25.03;19.67;;;10.70;99.90;;;;;;4996837;28;20468;-52
2022/04/26 04:01:23;;;;;;;23.13;19.23;;;10.70;99.90;;;;;;4996868;28;20444;-51
2022/04/26 04:03:51;;;;;;;25.30;20.90;;;10.60;99.90;;;;;;4996907;28;20793;-51
2022/04/26 04:06:19;;;;;;;20.47;18.30;;;10.70;99.90;;;;;;4996760;28;20571;-52
2022/04/26 04:08:46;;;;;;;26.27;22.10;;;10.70;99.90;;;;;;4996663;28;20468;-51
2022/04/26 04:11:13;;;;;;;23.57;19.13;;;10.70;99.90;;;;;;4996464;28;21015;-52
2022/04/26 04:13:41;;;;;;;20.87;18.60;;;10.60;99.90;;;;;;4996315;28;20943;-51
2022/04/26 04:16:08;;;;;;;24.90;19.67;;;10.60;99.90;;;;;;4996536;28;20526;-51
2022/04/26 04:21:21;;;;;;;24.27;20.47;;;10.60;99.90;;;;;;4996436;28;20403;-51
2022/04/26 04:23:48;;;;;;;24.63;20.10;;;10.60;99.90;;;;;;4996201;28;20943;-51
2022/04/26 04:26:15;;;;;;;23.00;19.77;;;10.50;99.90;;;;;;4995886;28;20460;-51
2022/04/26 04:28:42;;;;;;;24.47;18.97;;;10.40;99.90;;;;;;4996328;28;20487;-51
2022/04/26 04:31:11;;;;;;;21.73;18.90;;;10.30;99.90;;;;;;4996559;28;20480;-51
2022/04/26 04:33:38;;;;;;;22.97;20.00;;;10.30;99.90;;;;;;4996078;28;21009;-52
2022/04/26 04:36:05;;;;;;;25.30;20.67;;;10.30;99.90;;;;;;4995810;28;20505;-52
2022/04/26 04:38:34;;;;;;;22.10;19.70;;;10.20;99.90;;;;;;4996035;28;20539;-52
2022/04/26 04:41:01;;;;;;;23.00;19.23;;;10.20;99.90;;;;;;4995781;28;20930;-52
2022/04/26 04:43:28;;;;;;;24.13;20.57;;;10.30;99.90;;;;;;4995360;28;20456;-51
2022/04/26 04:45:55;;;;;;;27.90;21.90;;;10.30;99.90;;;;;;4995871;28;20459;-52
2022/04/26 04:48:23;;;;;;;26.90;21.23;;;10.40;99.90;;;;;;4995683;28;20554;-52
2022/04/26 04:50:50;;;;;;;22.90;19.30;;;10.30;99.90;;;;;;4995909;28;20452;-51
2022/04/26 04:53:19;;;;;;;25.13;20.33;;;10.40;99.90;;;;;;4995880;28;20511;-51
2022/04/26 04:55:48;;;;;;;24.77;20.23;;;10.30;99.90;;;;;;4995460;28;20460;-53
2022/04/26 04:58:15;;;;;;;21.70;19.10;;;10.30;99.90;;;;;;4995705;28;20558;-53
2022/04/26 05:00:43;;;;;;;25.00;19.60;;;10.30;99.90;;;;;;4995576;28;20539;-53
2022/04/26 05:03:10;;;;;;;24.97;20.90;;;10.40;99.90;;;;;;4995380;28;20502;-53
2022/04/26 05:05:37;;;;;;;24.70;20.30;;;10.60;99.90;;;;;;4995271;28;20452;-52
2022/04/26 05:08:05;;;;;;;23.53;19.87;;;10.70;99.90;;;;;;4995463;28;21057;-52
2022/04/26 05:10:33;;;;;;;22.23;19.30;;;10.70;99.90;;;;;;4995638;28;20483;-52
2022/04/26 05:13:02;;;;;;;26.43;21.23;;;10.80;99.90;;;;;;4995019;28;20993;-52
2022/04/26 05:15:29;;;;;;;30.37;24.97;;;10.80;99.90;;;;;;4994994;28;21026;-53
2022/04/26 05:17:56;;;;;;;25.60;20.67;;;10.80;99.90;;;;;;4995258;28;20476;-53
2022/04/26 05:20:24;;;;;;;25.90;20.80;;;10.80;99.90;;;;;;4994950;28;20458;-53
2022/04/26 05:25:37;;;;;;;22.33;19.00;;;10.90;99.90;;;;;;4995071;28;20442;-52
2022/04/26 05:28:06;;;;;;;26.27;22.23;;;10.90;99.90;;;;;;4994731;28;20954;-51
2022/04/26 05:30:34;;;;;;;26.17;21.87;;;10.90;99.90;;;;;;4994803;28;20943;-52
2022/04/26 05:33:01;;;;;;;27.83;22.33;;;10.90;99.90;;;;;;4995106;28;20511;-52
2022/04/26 05:35:28;;;;;;;23.87;20.77;;;10.90;99.90;;;;;;4994660;28;20476;-52
2022/04/26 05:37:55;;;;;;;27.60;21.97;;;10.80;99.90;;;;;;4994847;28;20480;-52
2022/04/26 05:40:22;;;;;;;22.70;19.23;;;10.70;99.90;;;;;;4994980;28;20452;-51
2022/04/26 05:42:50;;;;;;;25.53;20.20;;;10.70;99.90;;;;;;4994518;28;20969;-53
2022/04/26 05:45:18;;;;;;;22.17;19.23;;;10.70;99.90;;;;;;4994398;28;20471;-51
2022/04/26 05:47:46;;;;;;;21.10;18.37;;;10.80;99.90;;;;;;4994382;28;20551;-53
2022/04/26 05:50:14;;;;;;;23.37;19.23;;;10.90;99.90;;;;;;4994483;28;20959;-52
2022/04/26 05:52:41;;;;;;;23.73;19.20;;;10.90;99.90;;;;;;4994312;28;20516;-51
2022/04/26 05:55:09;;;;;;;23.83;20.73;;;10.70;99.90;;;;;;4993697;28;20510;-51
2022/04/26 05:57:42;;;;;;;21.17;18.90;;;10.70;99.90;;;;;;4994338;28;20996;-52
2022/04/26 06:00:11;;;;;;;24.23;20.97;;;10.60;99.90;;;;;;4994464;28;20429;-52
2022/04/26 06:02:40;;;;;;;26.57;22.00;;;10.60;99.90;;;;;;4994251;28;20455;-53
2022/04/26 06:05:08;;;;;;;23.50;20.90;;;10.50;99.90;;;;;;4994079;28;20438;-51
2022/04/26 06:07:36;;;;;;;31.17;22.03;;;10.50;99.90;;;;;;4994482;28;20452;-51
2022/04/26 06:10:03;;;;;;;22.40;19.20;;;10.60;99.90;;;;;;4994165;28;20551;-51
2022/04/26 06:12:31;;;;;;;25.83;19.07;;;10.60;99.90;;;;;;4993963;28;20491;-51
2022/04/26 06:14:59;;;;;;;22.90;19.50;;;10.60;99.90;;;;;;4994151;28;20500;-51
2022/04/26 06:17:27;;;;;;;24.40;21.37;;;10.70;99.90;;;;;;4994334;28;20538;-52
2022/04/26 06:19:55;;;;;;;24.83;18.50;;;10.90;99.90;;;;;;4994422;28;20454;-51
2022/04/26 06:22:22;;;;;;;21.93;19.40;;;10.90;99.90;;;;;;4994300;28;20448;-51
2022/04/26 06:24:51;;;;;;;20.33;16.20;;;10.90;99.90;;;;;;4994221;28;20484;-52
2022/04/26 06:27:18;;;;;;;15.63;13.27;;;11.00;99.90;;;;;;4993581;28;20464;-52
2022/04/26 06:29:45;;;;;;;19.43;16.20;;;10.90;99.90;;;;;;4994105;28;20506;-52
2022/04/26 06:32:13;;;;;;;16.73;14.50;;;11.10;99.90;;;;;;4994115;28;20522;-51
2022/04/26 06:34:42;;;;;;;18.70;16.70;;;11.10;99.90;;;;;;4993595;28;20484;-51
2022/04/26 06:37:12;;;;;;;17.37;15.50;;;11.10;99.90;;;;;;4993715;28;20462;-52
2022/04/26 06:39:40;;;;;;;17.87;15.97;;;11.00;99.90;;;;;;4993512;28;20464;-51
2022/04/26 06:42:07;;;;;;;17.83;14.80;;;10.90;99.90;;;;;;4993698;28;20447;-51
2022/04/26 06:44:34;;;;;;;16.20;14.07;;;10.90;99.90;;;;;;4993768;28;20534;-51
2022/04/26 06:47:02;;;;;;;15.20;13.50;;;10.80;99.90;;;;;;4994008;28;20470;-51
2022/04/26 06:49:29;;;;;;;16.50;14.90;;;10.80;99.90;;;;;;4993443;28;20472;-51
2022/04/26 06:51:56;;;;;;;16.23;14.20;;;10.70;99.90;;;;;;4993376;28;20490;-51
2022/04/26 06:54:25;;;;;;;14.93;13.43;;;10.70;99.90;;;;;;4993493;28;20456;-51
2022/04/26 06:56:52;;;;;;;16.97;15.17;;;10.90;99.90;;;;;;4993400;28;20908;-52
2022/04/26 06:59:20;;;;;;;17.00;14.50;;;11.00;99.90;;;;;;4993743;28;20564;-51
2022/04/26 07:01:52;;;;;;;17.73;14.60;;;11.10;99.90;;;;;;4993579;28;21003;-52
2022/04/26 07:04:20;;;;;;;16.17;12.97;;;10.90;99.90;;;;;;4993940;28;20437;-51
2022/04/26 07:06:47;;;;;;;13.67;12.33;;;10.80;99.90;;;;;;4996765;28;20952;-51
2022/04/26 07:09:15;;;;;;;14.70;12.70;;;10.80;99.90;;;;;;4997636;28;20468;-51
2022/04/26 07:11:43;;;;;;;14.77;13.00;;;10.70;99.90;;;;;;4997446;28;20927;-51
2022/04/26 07:14:11;;;;;;;15.37;13.80;;;10.70;99.90;;;;;;4997401;28;20519;-51
2022/04/26 07:16:39;;;;;;;14.37;12.87;;;10.80;99.90;;;;;;4997193;28;20528;-52
2022/04/26 07:19:06;;;;;;;12.73;11.43;;;10.90;99.90;;;;;;4997317;28;20467;-51
2022/04/26 07:21:35;;;;;;;13.97;11.90;;;10.90;99.90;;;;;;4997412;28;20510;-51
2022/04/26 07:24:03;;;;;;;12.00;10.80;;;10.90;99.90;;;;;;4997358;28;20459;-51
2022/04/26 07:26:31;;;;;;;12.03;10.93;;;11.00;99.90;;;;;;4997555;28;20459;-50
2022/04/26 07:28:59;;;;;;;11.27;10.17;;;11.30;99.90;;;;;;4997672;28;20466;-51
2022/04/26 07:31:27;;;;;;;11.47;9.17;;;11.50;99.90;;;;;;4997295;28;20452;-52
2022/04/26 07:36:38;;;;;;;12.30;11.00;;;11.90;99.90;;;;;;4997048;28;20415;-51
2022/04/26 07:39:07;;;;;;;14.60;12.60;;;12.10;99.90;;;;;;4996818;28;20456;-52
2022/04/26 07:41:34;;;;;;;11.50;10.30;;;12.30;99.90;;;;;;4997114;28;20521;-51
2022/04/26 07:44:03;;;;;;;11.53;10.37;;;12.20;99.90;;;;;;4996923;28;20454;-52
2022/04/26 07:46:30;;;;;;;10.63;9.63;;;12.30;99.90;;;;;;4997138;28;20447;-52
2022/04/26 07:48:57;;;;;;;10.70;9.77;;;12.30;99.90;;;;;;4996837;28;20469;-52
2022/04/26 07:51:25;;;;;;;11.63;9.33;;;12.20;99.90;;;;;;4996589;28;20814;-52
2022/04/26 07:53:52;;;;;;;13.63;11.37;;;12.20;99.90;;;;;;4996550;28;20484;-52
2022/04/26 07:56:19;;;;;;;11.37;10.27;;;12.10;99.90;;;;;;4996878;28;20542;-52
2022/04/26 07:58:46;;;;;;;12.40;11.20;;;12.10;99.90;;;;;;4996765;28;20550;-52
2022/04/26 08:01:15;;;;;;;10.97;9.87;;;11.90;99.90;;;;;;4996871;28;20455;-51
2022/04/26 08:03:47;;;;;;;10.13;9.20;;;11.70;99.90;;;;;;4996805;28;20447;-52
2022/04/26 08:06:14;;;;;;;11.30;10.17;;;11.70;99.90;;;;;;4996691;28;20455;-52
2022/04/26 08:08:41;;;;;;;11.90;10.73;;;11.80;99.90;;;;;;4996493;28;20479;-52
2022/04/26 08:11:12;;;;;;;10.30;9.40;;;11.70;99.90;;;;;;4996311;28;20815;-51
2022/04/26 08:13:39;;;;;;;10.83;9.63;;;11.60;99.90;;;;;;4996505;28;20619;-51
2022/04/26 08:16:07;;;;;;;9.10;8.20;;;11.60;99.90;;;;;;4996362;28;20529;-52
2022/04/26 08:18:35;;;;;;;10.27;9.37;;;11.50;99.90;;;;;;4995772;28;20604;-51
2022/04/26 08:21:03;;;;;;;10.67;9.57;;;11.40;99.90;;;;;;4996170;28;20939;-51
2022/04/26 08:23:31;;;;;;;10.50;9.50;;;11.40;99.90;;;;;;4996031;28;20542;-52
2022/04/26 08:28:43;;;;;;;11.53;10.27;;;11.30;99.90;;;;;;4996156;28;20498;-52
2022/04/26 08:31:11;;;;;;;10.97;9.87;;;11.40;99.90;;;;;;4996256;28;20452;-52
2022/04/26 08:33:39;;;;;;;11.77;10.57;;;11.50;99.90;;;;;;4996141;28;20581;-51
2022/04/26 08:36:07;;;;;;;11.83;10.73;;;11.50;99.90;;;;;;4995790;28;20479;-54
2022/04/26 08:38:35;;;;;;;11.40;10.20;;;11.50;99.90;;;;;;4995855;28;20482;-51
2022/04/26 08:41:02;;;;;;;9.83;8.90;;;11.80;99.90;;;;;;4996059;28;20494;-51
2022/04/26 08:43:33;;;;;;;12.73;11.17;;;;;;;;;;4996068;28;20459;-51
2022/04/26 08:46:02;;;;;;;11.27;9.63;;;12.10;99.90;;;;;;4995819;28;20923;-51
2022/04/26 08:51:15;;;;;;;12.37;9.77;;;12.60;99.90;;;;;;4995609;28;20463;-52
2022/04/26 08:53:44;;;;;;;10.80;9.60;;;12.60;99.90;;;;;;4995729;28;20570;-52
2022/04/26 08:56:12;;;;;;;12.33;9.73;;;12.60;99.90;;;;;;4995829;28;20460;-51
2022/04/26 08:58:40;;;;;;;11.93;10.83;;;12.50;99.90;;;;;;4995404;28;20472;-51
2022/04/26 09:01:13;;;;;;;12.00;10.80;;;12.30;99.90;;;;;;4995695;28;20515;-51
2022/04/26 09:03:41;;;;;;;11.43;10.33;;;;;;;;;;4995530;28;20519;-51
2022/04/26 09:06:12;;;;;;;10.70;9.70;;;12.30;99.90;;;;;;4995670;28;20594;-52
2022/04/26 09:08:42;;;;;;;12.27;10.53;;;12.30;99.90;;;;;;4995521;28;20472;-52
2022/04/26 09:11:24;;;;;;;9.50;8.67;;;12.50;99.90;;;;;;4995511;28;20436;-51
2022/04/26 09:13:52;;;;;;;10.80;9.80;;;12.50;99.90;;;;;;4995143;28;20494;-51
2022/04/26 09:16:21;;;;;;;10.70;9.77;;;12.60;99.90;;;;;;4995259;28;20949;-51
2022/04/26 09:18:53;;;;;;;10.90;9.30;;;12.60;99.90;;;;;;4995042;28;20987;-51
2022/04/26 09:21:27;;;;;;;9.60;8.57;;;12.70;99.90;;;;;;4995386;28;20814;-52
2022/04/26 09:23:58;;;;;;;13.20;8.57;;;12.50;99.90;;;;;;4994960;28;20435;-51
2022/04/26 09:26:26;;;;;;;9.43;8.63;;;12.50;99.90;;;;;;4995029;28;20487;-51
2022/04/26 09:28:58;;;;;;;9.47;8.57;;;12.50;99.90;;;;;;4994820;28;20472;-51
2022/04/26 09:31:27;;;;;;;9.73;8.83;;;12.70;99.90;;;;;;4995188;28;20425;-51
2022/04/26 09:33:57;;;;;;;9.13;8.30;;;13.10;99.90;;;;;;4994748;28;20963;-51
2022/04/26 09:36:25;;;;;;;8.63;7.70;;;13.40;99.90;;;;;;4993566;28;20514;-51
2022/04/26 09:38:56;;;;;;;9.03;8.03;;;13.80;99.90;;;;;;4994929;28;20510;-52
2022/04/26 09:41:25;;;;;;;9.70;8.07;;;14.20;99.90;;;;;;4994906;28;20451;-51
2022/04/26 09:44:01;;;;;;;8.10;6.30;;;15.10;99.90;;;;;;4994694;28;20452;-51
2022/04/26 09:46:47;;;;;;;7.57;6.87;;;15.60;99.90;;;;;;4995119;28;20815;-52
2022/04/26 09:49:15;;;;;;;7.53;6.83;;;15.00;99.90;;;;;;4994583;28;20451;-51
2022/04/26 09:51:43;;;;;;;8.60;7.70;;;14.40;99.90;;;;;;4994666;28;20486;-51
2022/04/26 09:54:12;;;;;;;7.20;6.50;;;14.60;99.90;;;;;;4994481;28;20494;-51
2022/04/26 09:56:39;;;;;;;7.40;6.70;;;15.10;99.90;;;;;;4994637;28;20551;-51
2022/04/26 09:59:07;;;;;;;7.37;6.70;;;15.30;99.90;;;;;;4994225;28;20487;-52
2022/04/26 10:01:39;;;;;;;10.47;6.87;;;15.90;99.90;;;;;;4994255;28;20538;-52
2022/04/26 10:04:08;;;;;;;7.40;6.50;;;16.40;99.90;;;;;;4994648;28;20429;-52
2022/04/26 10:06:37;;;;;;;7.23;6.53;;;16.50;99.90;;;;;;4994594;28;20448;-52
2022/04/26 10:09:06;;;;;;;8.37;7.17;;;16.00;99.90;;;;;;4994131;28;20558;-51
2022/04/26 10:11:35;;;;;;;8.17;6.03;;;15.30;99.90;;;;;;4994482;28;20452;-51
2022/04/26 10:14:05;;;;;;;6.13;5.53;;;14.80;99.90;;;;;;4994231;28;21083;-52
2022/04/26 10:16:33;;;;;;;7.00;6.40;;;14.60;99.90;;;;;;4994068;28;20524;-53
2022/04/26 10:19:06;;;;;;;6.67;6.00;;;14.30;99.90;;;;;;4993880;28;20471;-51
2022/04/26 10:21:49;;;;;;;7.57;6.13;;;14.10;99.90;;;;;;4994258;28;20443;-51
2022/04/26 10:24:19;;;;;;;6.90;6.20;;;14.30;99.90;;;;;;4994315;28;20451;-51
2022/04/26 10:26:49;;;;;;;6.90;5.47;;;14.50;99.90;;;;;;4994185;28;20484;-52
2022/04/26 10:29:21;;;;;;;5.93;5.40;;;15.10;99.90;;;;;;4993859;28;20479;-53
2022/04/26 10:31:49;;;;;;;6.37;5.77;;;16.40;99.90;;;;;;4994167;28;20431;-52
2022/04/26 10:34:35;;;;;;;7.00;6.40;;;16.90;99.30;;;;;;4994083;28;20510;-52
2022/04/26 10:37:19;;;;;;;7.00;4.93;;;17.70;97.80;;;;;;4993928;28;20482;-52
2022/04/26 10:39:49;;;;;;;5.67;4.80;;;18.90;97.20;;;;;;4993415;28;20949;-53
2022/04/26 10:42:31;;;;;;;5.97;4.80;;;19.10;92.50;;;;;;4993903;28;20486;-53
2022/04/26 10:45:00;;;;;;;7.90;5.10;;;18.90;92.30;;;;;;4993794;28;20993;-52
2022/04/26 10:47:31;;;;;;;6.60;5.53;;;17.00;93.10;;;;;;4993941;28;20447;-52
2022/04/26 10:50:02;;;;;;;7.40;5.97;;;16.60;93.80;;;;;;4993735;28;20555;-52
2022/04/26 10:52:50;;;;;;;6.20;4.77;;;16.80;94.00;;;;;;4994073;28;20425;-52
2022/04/26 10:55:18;;;;;;;9.50;4.97;;;16.50;95.80;;;;;;4993894;28;20518;-52
2022/04/26 10:57:55;;;;;;;6.57;5.67;;;16.10;94.00;;;;;;4993849;28;20871;-52
2022/04/26 11:00:37;;;;;;;5.07;4.67;;;15.90;95.00;;;;;;4993657;28;20436;-52
2022/04/26 11:03:08;;;;;;;4.70;4.30;;;16.00;94.70;;;;;;4993530;28;20994;-52
2022/04/26 11:05:37;;;;;;;4.93;4.43;;;16.30;94.40;;;;;;4993945;28;20460;-53
2022/04/26 11:08:05;;;;;;;5.43;4.57;;;16.80;94.60;;;;;;4993693;28;20555;-52
2022/04/26 11:13:37;;;;;;;4.77;4.33;;;16.80;90.80;;;;;;4993164;28;20475;-53
2022/04/26 11:16:13;;;;;;;4.30;3.90;;;16.00;92.00;;;;;;4991812;28;20482;-52
2022/04/26 11:18:42;;;;;;;8.33;6.70;;;15.30;92.20;;;;;;4993253;28;20571;-52
2022/04/26 11:21:11;;;;;;;8.27;7.10;;;14.90;96.20;;;;;;4993155;28;20456;-52
2022/04/26 11:29:24;;;;;;;9.63;8.73;;;14.20;99.90;;;;;;4993058;28;20474;-52
2022/04/26 11:31:51;;;;;;;9.90;7.77;;;13.90;99.90;;;;;;4993134;28;20436;-52
2022/04/26 11:34:19;;;;;;;8.60;7.77;;;14.30;99.90;;;;;;4992915;28;21053;-52
2022/04/26 11:36:46;;;;;;;10.73;7.50;;;14.80;99.90;;;;;;4993588;28;20450;-52
2022/04/26 11:39:13;;;;;;;7.00;6.40;;;15.50;99.90;;;;;;4993121;28;20974;-52
2022/04/26 11:41:40;;;;;;;7.90;7.10;;;16.10;99.90;;;;;;4993016;28;20451;-52
2022/04/26 11:44:08;;;;;;;7.77;7.00;;;16.50;99.20;;;;;;4993160;28;20943;-52
2022/04/26 11:46:36;;;;;;;8.00;6.70;;;16.50;99.40;;;;;;4993487;28;20459;-52
2022/04/26 11:49:04;;;;;;;8.27;7.13;;;16.00;99.00;;;;;;4993219;28;20770;-52
2022/04/26 11:51:32;;;;;;;7.10;6.20;;;15.60;99.20;;;;;;4993522;28;20444;-53
2022/04/26 11:53:59;;;;;;;7.93;7.17;;;15.40;99.90;;;;;;4996208;28;20527;-51
2022/04/26 11:56:27;;;;;;;7.83;7.10;;;14.40;99.90;;;;;;4996452;28;20460;-52
2022/04/26 11:58:54;;;;;;;7.07;6.47;;;14.00;99.90;;;;;;4996241;28;21039;-52
2022/04/26 12:01:21;;;;;;;6.97;6.37;;;14.80;99.90;;;;;;4996505;28;20458;-55
2022/04/26 12:03:51;;;;;;;6.13;5.20;;;15.70;99.90;;;;;;4996705;28;20467;-52
2022/04/26 12:06:20;;;;;;;6.90;5.47;;;16.60;98.30;;;;;;4996661;28;20463;-52
2022/04/26 12:08:51;;;;;;;6.07;5.57;;;16.30;97.10;;;;;;4996685;28;20839;-52
2022/04/26 12:11:20;;;;;;;5.97;5.47;;;17.10;98.10;;;;;;4996309;28;20451;-52
2022/04/26 12:13:59;;;;;;;4.93;4.53;;;16.80;97.00;;;;;;4996391;28;20479;-52
2022/04/26 12:16:27;;;;;;;5.80;5.30;;;16.70;98.10;;;;;;4996485;28;20442;-52
2022/04/26 12:18:57;;;;;;;6.07;5.50;;;16.20;96.80;;;;;;4996207;28;20503;-52
2022/04/26 12:21:27;;;;;;;6.10;5.50;;;16.00;96.40;;;;;;4996192;28;20502;-52
2022/04/26 12:24:11;;;;;;;7.33;6.60;;;15.40;97.90;;;;;;4996245;28;20555;-52
2022/04/26 12:26:49;;;;;;;7.00;5.13;;;14.80;98.90;;;;;;4996297;28;20467;-52
2022/04/26 12:29:16;;;;;;;6.10;5.50;;;14.60;99.00;;;;;;4995853;28;20475;-55
2022/04/26 12:31:46;;;;;;;9.60;6.80;;;14.50;99.60;;;;;;4996311;28;20456;-52
2022/04/26 12:34:19;;;;;;;8.57;6.27;;;14.00;99.90;;;;;;4995901;28;20990;-52
2022/04/26 12:36:57;;;;;;;15.73;7.93;;;14.50;99.90;;;;;;4996188;28;20451;-52
2022/04/26 12:39:26;;;;;;;10.00;6.70;;;14.20;99.90;;;;;;4995714;28;20456;-50
2022/04/26 12:41:56;;;;;;;7.60;5.43;;;13.80;99.90;;;;;;4995824;28;20450;-51
2022/04/26 12:44:24;;;;;;;11.30;4.40;;;13.30;99.90;;;;;;4996123;28;20515;-51
2022/04/26 12:52:32;;;;;;;13.17;6.10;;;11.70;99.90;;;;;;4995663;28;20772;-51
2022/04/26 12:54:59;;;;;;;8.30;4.70;;;11.50;99.90;;;;;;4995393;28;20475;-51
2022/04/26 12:57:26;;;;;;;4.40;3.90;;;11.30;99.90;;;;;;4995627;28;20789;-51
2022/04/26 12:59:53;;;;;;;3.80;3.50;;;11.00;99.90;;;;;;4995411;28;20455;-51
2022/04/26 13:02:20;;;;;;;6.00;4.40;;;11.00;99.90;;;;;;4995602;28;20994;-51
2022/04/26 13:04:49;;;;;;;4.33;4.03;;;11.00;99.90;;;;;;4995271;28;20476;-51
2022/04/26 13:07:16;;;;;;;3.90;3.60;;;11.10;99.90;;;;;;4995282;28;20951;-51
2022/04/26 13:09:43;;;;;;;3.90;3.60;;;11.30;99.90;;;;;;4995507;28;20505;-51
2022/04/26 13:12:10;;;;;;;4.63;4.23;;;11.20;99.90;;;;;;4995180;28;20938;-53
2022/04/26 13:14:37;;;;;;;4.50;4.07;;;11.40;99.90;;;;;;4995271;28;20817;-51
2022/04/26 13:17:06;;;;;;;5.50;4.23;;;11.80;99.90;;;;;;4995198;28;20547;-51
2022/04/26 13:19:34;;;;;;;5.00;4.47;;;12.00;99.90;;;;;;4995244;28;20871;-51
2022/04/26 13:22:02;;;;;;;6.17;3.90;;;12.20;99.90;;;;;;4995079;28;20494;-51
2022/04/26 13:24:30;;;;;;;4.20;3.80;;;12.50;99.90;;;;;;4995049;28;20456;-51
2022/04/26 13:26:58;;;;;;;3.80;3.50;;;13.30;99.90;;;;;;4994609;28;21045;-51
2022/04/26 13:29:25;;;;;;;3.03;2.60;;;14.00;99.90;;;;;;4994536;28;20476;-51
2022/04/26 13:31:52;;;;;;;3.10;2.70;;;15.20;99.90;;;;;;4994390;28;21034;-52
2022/04/26 13:34:19;;;;;;;3.07;2.70;;;15.60;99.90;;;;;;4994633;28;20838;-52
2022/04/26 13:36:47;;;;;;;3.80;3.13;;;15.20;99.90;;;;;;4994880;28;20510;-52
2022/04/26 13:39:16;;;;;;;4.00;3.40;;;14.60;99.90;;;;;;4994468;28;20456;-52
2022/04/26 13:41:43;;;;;;;3.43;3.13;;;14.70;99.90;;;;;;4994727;28;20452;-51
2022/04/26 13:44:12;;;;;;;5.00;2.77;;;14.60;99.90;;;;;;4994431;28;20543;-50
2022/04/26 13:46:39;;;;;;;3.60;3.30;;;14.90;99.90;;;;;;4994791;28;20518;-51
2022/04/26 13:49:06;;;;;;;3.33;3.10;;;15.10;99.90;;;;;;4994674;28;20463;-51
2022/04/26 13:51:34;;;;;;;5.53;3.53;;;15.00;99.90;;;;;;4994745;28;20448;-52
2022/04/26 13:54:06;;;;;;;3.00;2.70;;;14.70;99.90;;;;;;4994243;28;20480;-52
2022/04/26 13:56:35;;;;;;;3.73;3.33;;;14.90;99.10;;;;;;4994725;28;20452;-52
2022/04/26 13:59:02;;;;;;;3.53;2.97;;;14.70;99.50;;;;;;4994422;28;20476;-52
2022/04/26 14:01:29;;;;;;;3.30;3.00;;;14.80;97.50;;;;;;4994504;28;20539;-52
2022/04/26 14:03:57;;;;;;;3.00;2.80;;;15.10;98.20;;;;;;4994402;28;20543;-53
2022/04/26 14:06:24;;;;;;;4.10;3.70;;;15.40;97.60;;;;;;4994664;28;20455;-53
2022/04/26 14:08:51;;;;;;;4.00;3.50;;;15.30;97.40;;;;;;4994216;28;20473;-52
2022/04/26 14:11:21;;;;;;;4.30;3.90;;;15.00;96.90;;;;;;4994077;28;20455;-52
2022/04/26 14:22:03;;;;;;;5.23;4.03;;;14.50;97.70;;;;;;4993858;28;20411;-52
2022/04/26 14:24:30;;;;;;;3.90;3.60;;;14.70;98.30;;;;;;4994365;28;20471;-52
2022/04/26 14:26:59;;;;;;;4.80;4.03;;;14.30;98.00;;;;;;4994063;28;20446;-55
2022/04/26 14:29:28;;;;;;;4.20;3.80;;;14.30;99.00;;;;;;4994158;28;20868;-50
2022/04/26 14:31:55;;;;;;;4.90;4.40;;;14.60;99.50;;;;;;4993979;28;20939;-51
2022/04/26 14:34:22;;;;;;;4.37;4.07;;;14.60;97.80;;;;;;4993592;28;20494;-52
2022/04/26 14:36:50;;;;;;;4.30;3.90;;;14.10;97.90;;;;;;4993548;28;20981;-52
2022/04/26 14:39:17;;;;;;;4.53;4.13;;;13.90;98.40;;;;;;4993931;28;20470;-54
2022/04/26 14:41:44;;;;;;;4.33;3.93;;;13.70;99.60;;;;;;4994062;28;20452;-52
2022/04/26 14:44:12;;;;;;;4.13;3.67;;;14.10;99.90;;;;;;4993301;28;20538;-54
2022/04/26 14:46:40;;;;;;;4.03;3.63;;;14.40;99.50;;;;;;4993996;28;20447;-50
2022/04/26 14:49:07;;;;;;;3.87;3.47;;;14.70;99.40;;;;;;4993487;28;20496;-51
2022/04/26 14:51:35;;;;;;;4.00;3.63;;;14.70;98.00;;;;;;4993575;28;20455;-54
2022/04/26 14:54:02;;;;;;;4.35;3.65;;;14.70;97.60;;;;;;4993268;28;20451;-52
2022/04/26 14:56:29;;;;;;;4.33;3.63;;;14.80;98.20;;;;;;4993971;28;20459;-52
2022/04/26 14:59:00;;;;;;;3.60;3.30;;;15.10;98.90;;;;;;4993660;28;20491;-53
2022/04/26 15:01:29;;;;;;;3.90;3.60;;;15.10;97.60;;;;;;4993451;28;20531;-52
2022/04/26 15:03:58;;;;;;;4.60;4.20;;;14.80;96.40;;;;;;4993550;28;20452;-52
2022/04/26 15:06:26;;;;;;;4.90;4.50;;;14.40;97.20;;;;;;4993882;28;20455;-51
2022/04/26 15:11:38;;;;;;;4.07;3.67;;;13.70;97.90;;;;;;4993566;28;20463;-55
2022/04/26 15:16:50;;;;;;;4.10;3.70;;;13.90;98.60;;;;;;4993671;28;20419;-52
2022/04/26 15:19:18;;;;;;;4.00;3.63;;;14.00;99.20;;;;;;4993227;28;20468;-52
2022/04/26 15:21:45;;;;;;;7.27;6.77;;;14.20;98.50;;;;;;4993638;28;20491;-52
2022/04/26 15:24:13;;;;;;;3.60;3.30;;;14.20;98.20;;;;;;4993168;28;20447;-52
2022/04/26 15:26:40;;;;;;;4.40;3.90;;;14.20;98.30;;;;;;4994947;28;20462;-52
2022/04/26 15:29:08;;;;;;;8.90;4.00;;;14.10;98.50;;;;;;4997053;28;20530;-52
2022/04/26 15:31:35;;;;;;;4.57;3.80;;;14.00;98.60;;;;;;4997235;28;20514;-52
2022/04/26 15:34:03;;;;;;;4.20;3.80;;;13.90;98.70;;;;;;4996903;28;20818;-52
2022/04/26 15:36:32;;;;;;;3.97;3.67;;;13.70;98.40;;;;;;4996702;28;20495;-52
2022/04/26 15:38:59;;;;;;;3.73;3.43;;;13.50;99.90;;;;;;4996750;28;20476;-52
2022/04/26 15:41:27;;;;;;;5.17;4.73;;;13.30;99.90;;;;;;4996988;28;20452;-51
2022/04/26 15:43:54;;;;;;;25.93;5.97;;;13.00;99.90;;;;;;4996737;28;20543;-51
2022/04/26 15:46:21;;;;;;;7.10;5.40;;;12.30;99.90;;;;;;4996752;28;20502;-51
2022/04/26 15:48:49;;;;;;;6.00;5.30;;;11.90;99.90;;;;;;4997003;28;20554;-51
2022/04/26 15:51:17;;;;;;;5.87;5.10;;;11.50;99.90;;;;;;4996995;28;20502;-51
2022/04/26 15:53:46;;;;;;;6.07;5.47;;;11.00;99.90;;;;;;4996856;28;20456;-51
2022/04/26 15:56:14;;;;;;;5.20;4.70;;;10.80;99.90;;;;;;4996757;28;20495;-51
2022/04/26 15:58:42;;;;;;;5.97;5.37;;;10.80;99.90;;;;;;4996346;28;20542;-51
2022/04/26 16:01:09;;;;;;;5.67;4.80;;;11.00;99.90;;;;;;4996612;28;20795;-51
2022/04/26 16:03:38;;;;;;;4.37;3.97;;;11.00;99.90;;;;;;4996434;28;20487;-51
2022/04/26 16:06:05;;;;;;;5.30;4.20;;;11.00;99.90;;;;;;4996460;28;20452;-52
2022/04/26 16:08:35;;;;;;;4.60;3.80;;;11.00;99.90;;;;;;4996369;28;20479;-52
2022/04/26 16:22:03;;;;;;;4.07;3.70;;;11.30;99.90;;;;;;4996198;28;20449;-51
2022/04/26 16:24:30;;;;;;;6.87;4.87;;;11.30;99.90;;;;;;4996527;28;20447;-51
2022/04/26 16:26:58;;;;;;;4.60;4.17;;;11.30;99.90;;;;;;4996569;28;20456;-52
2022/04/26 16:29:25;;;;;;;5.87;5.37;;;11.20;99.90;;;;;;4996149;28;20467;-52
2022/04/26 16:31:53;;;;;;;4.43;4.03;;;11.20;99.90;;;;;;4996438;28;20498;-52
2022/04/26 16:34:20;;;;;;;3.80;3.50;;;11.10;99.90;;;;;;4996237;28;20812;-52
2022/04/26 16:36:47;;;;;;;4.30;3.70;;;11.10;99.90;;;;;;4996145;28;20537;-52
2022/04/26 16:39:14;;;;;;;4.50;4.10;;;11.10;99.90;;;;;;4995130;28;20974;-52
2022/04/26 16:41:42;;;;;;;3.67;3.37;;;11.40;99.90;;;;;;4995776;28;20995;-52
2022/04/26 16:44:10;;;;;;;4.93;3.90;;;11.50;99.90;;;;;;4996066;28;20451;-52
2022/04/26 16:46:37;;;;;;;4.10;3.80;;;11.70;99.90;;;;;;4996025;28;20454;-51
2022/04/26 16:49:05;;;;;;;3.23;3.03;;;11.70;99.90;;;;;;4995597;28;20467;-52
2022/04/26 16:51:34;;;;;;;4.13;3.83;;;11.60;99.90;;;;;;4995977;28;20813;-51
2022/04/26 16:54:01;;;;;;;3.40;3.07;;;11.50;99.90;;;;;;4995623;28;20456;-51
2022/04/26 16:56:29;;;;;;;3.23;2.80;;;11.40;99.90;;;;;;4995520;28;20595;-52
2022/04/26 16:58:56;;;;;;;3.80;3.50;;;11.40;99.90;;;;;;4995850;28;20827;-51
2022/04/26 17:01:24;;;;;;;3.53;3.23;;;11.40;99.90;;;;;;4995803;28;20458;-51
2022/04/26 17:03:51;;;;;;;3.13;2.90;;;11.10;99.90;;;;;;4995516;28;20538;-52
2022/04/26 17:06:20;;;;;;;2.50;2.30;;;11.20;99.90;;;;;;4995714;28;20454;-51
2022/04/26 17:08:48;;;;;;;2.77;2.57;;;11.20;99.90;;;;;;4995679;28;20475;-51
2022/04/26 17:14:00;;;;;;;3.00;2.80;;;11.20;99.90;;;;;;4995482;28;20412;-51
2022/04/26 17:16:28;;;;;;;3.10;2.83;;;11.10;99.90;;;;;;4995383;28;20570;-52
2022/04/26 17:18:55;;;;;;;3.53;3.23;;;11.20;99.90;;;;;;4995016;28;20464;-51